Time;durP1;ratioP1;P1;durP2;ratioP2;P2;SDS_P1;SDS_P2;PMS_P1;PMS_P2;Temp;Humidity;BMP_temperature;BMP_pressure;BME280_temperature;BME280_humidity;BME280_pressure;Samples;Min_cycle;Max_cycle;Signal;HPM_P1;HPM_P2
2022/08/08 00:00:06;;;;;;;;;;;;;;;;;;5096830;28;19911;-87
2022/08/08 00:02:33;;;;;;;;;;;;;;;;;;5095441;28;19951;-87
2022/08/08 00:05:15;;;;;;;;;;;;;;;;;;5112401;28;19912;-87
2022/08/08 00:07:58;;;;;;;;;;;;;;;;;;5102361;28;19915;-86
2022/08/08 00:10:56;;;;;;;;;;;;;;;;;;5113374;28;19912;-88
2022/08/08 00:13:29;;;;;;;;;;;;;;;;;;5051372;28;19923;-88
2022/08/08 00:16:10;;;;;;;;;;;;;;;;;;5096171;28;19992;-87
2022/08/08 00:19:01;;;;;;;;;;;;;;;;;;5096142;28;19916;-87
2022/08/08 00:21:30;;;;;;;;;;;;;;;;;;5092422;28;19958;-87
2022/08/08 00:24:25;;;;;;;;;;;;;;;;;;5095180;28;19916;-87
2022/08/08 00:26:51;;;;;;;;;;;;;;;;;;5078357;28;19922;-87
2022/08/08 00:29:18;;;;;;;;;;;;;;;;;;5119502;28;19937;-87
2022/08/08 00:31:47;;;;;;;;;;;;;;;;;;5112378;28;19947;-88
2022/08/08 00:37:54;;;;;;;;;;;;;;;;;;5073491;28;20261;-87
2022/08/08 00:40:28;;;;;;;;;;;;;;;;;;5073372;28;19917;-87
2022/08/08 00:42:57;;;;;;;;;;;;;;;;;;5080257;28;19981;-86
2022/08/08 00:45:40;;;;;;;;;;;;;;;;;;5095889;28;19981;-88
2022/08/08 00:48:18;;;;;;;;;;;;;;;;;;5094171;28;19917;-88
2022/08/08 00:51:02;;;;;;;;;;;;;;;;;;5104799;28;19920;-86
2022/08/08 00:53:34;;;;;;;;;;;;;;;;;;5095694;28;19948;-85
2022/08/08 00:56:04;;;;;;;;;;;;;;;;;;5111573;28;19916;-87
2022/08/08 00:58:46;;;;;;;;;;;;;;;;;;5095818;28;20245;-87
2022/08/08 01:01:28;;;;;;;;;;;;;;;;;;5094394;28;19944;-87
2022/08/08 01:04:12;;;;;;;;;;;;;;;;;;5111203;28;19916;-87
2022/08/08 01:06:43;;;;;;;;;;;;;;;;;;5095477;28;19923;-87
2022/08/08 01:09:15;;;;;;;;;;;;;;;;;;5095847;28;19952;-87
2022/08/08 01:11:56;;;;;;;;;;;;;;;;;;5102976;28;19916;-87
2022/08/08 01:14:30;;;;;;;;;;;;;;;;;;5110878;28;19916;-89
2022/08/08 01:17:04;;;;;;;;;;;;;;;;;;5095274;28;19966;-87
2022/08/08 01:19:50;;;;;;;;;;;;;;;;;;5095279;28;20368;-88
2022/08/08 01:22:27;;;;;;;;;;;;;;;;;;5053633;28;19965;-88
2022/08/08 01:24:56;;;;;;;;;;;;;;;;;;5093670;28;20256;-87
2022/08/08 01:27:24;;;;;;;;;;;;;;;;;;5095196;28;20326;-88
2022/08/08 01:30:04;;;;;;;;;;;;;;;;;;5095079;28;20018;-87
2022/08/08 01:32:52;;;;;;;;;;;;;;;;;;5099466;28;19916;-87
2022/08/08 01:35:21;;;;;;;;;;;;;;;;;;5084009;28;19916;-87
2022/08/08 01:38:05;;;;;;;;;;;;;;;;;;5094972;28;19919;-88
2022/08/08 01:41:02;;;;;;;;;;;;;;;;;;5095146;28;19916;-86
2022/08/08 01:43:30;;;;;;;;;;;;;;;;;;5049457;28;19916;-87
2022/08/08 01:46:01;;;;;;;;;;;;;;;;;;5110563;28;20318;-87
2022/08/08 01:48:39;;;;;;;;;;;;;;;;;;5094780;28;19955;-87
2022/08/08 01:51:07;;;;;;;;;;;;;;;;;;5097766;28;19942;-87
2022/08/08 01:53:50;;;;;;;;;;;;;;;;;;5095792;28;19917;-88
2022/08/08 01:56:25;;;;;;;;;;;;;;;;;;5094568;28;20307;-88
2022/08/08 01:59:11;;;;;;;;;;;;;;;;;;5094544;28;19916;-89
2022/08/08 02:01:39;;;;;;;;;;;;;;;;;;5109965;28;19916;-87
2022/08/08 02:04:16;;;;;;;;;;;;;;;;;;5094745;28;19916;-88
2022/08/08 02:07:02;;;;;;;;;;;;;;;;;;5110761;28;19916;-87
2022/08/08 02:09:27;;;;;;;;;;;;;;;;;;5094139;28;19916;-87
2022/08/08 02:11:52;;;;;;;;;;;;;;;;;;5100398;28;19923;-87
2022/08/08 02:14:18;;;;;;;;;;;;;;;;;;5095556;28;19916;-87
2022/08/08 02:17:02;;;;;;;;;;;;;;;;;;5094345;28;20312;-87
2022/08/08 02:19:32;;;;;;;;;;;;;;;;;;5094606;28;19930;-88
2022/08/08 02:24:51;;;;;;;;;;;;;;;;;;5107653;28;19924;-86
2022/08/08 02:27:17;;;;;;;;;;;;;;;;;;5094284;28;19923;-88
2022/08/08 02:29:50;;;;;;;;;;;;;;;;;;5092805;28;20377;-87
2022/08/08 02:32:34;;;;;;;;;;;;;;;;;;5098398;28;19959;-86
2022/08/08 02:35:08;;;;;;;;;;;;;;;;;;5097213;28;19916;-87
2022/08/08 02:37:49;;;;;;;;;;;;;;;;;;5092902;28;19916;-87
2022/08/08 02:40:15;;;;;;;;;;;;;;;;;;5094153;28;19916;-88
2022/08/08 02:42:44;;;;;;;;;;;;;;;;;;5110334;28;19924;-89
2022/08/08 02:45:12;;;;;;;;;;;;;;;;;;5094199;28;19924;-88
2022/08/08 02:47:43;;;;;;;;;;;;;;;;;;5092925;28;19916;-88
2022/08/08 02:50:27;;;;;;;;;;;;;;;;;;5094390;28;19939;-87
2022/08/08 02:52:55;;;;;;;;;;;;;;;;;;5097696;28;19980;-87
2022/08/08 02:55:36;;;;;;;;;;;;;;;;;;5101107;28;19920;-89
2022/08/08 02:58:01;;;;;;;;;;;;;;;;;;5094301;28;19951;-88
2022/08/08 03:00:33;;;;;;;;;;;;;;;;;;5094420;28;19916;-88
2022/08/08 03:03:01;;;;;;;;;;;;;;;;;;5095551;28;19916;-87
2022/08/08 03:05:26;;;;;;;;;;;;;;;;;;5098169;28;19924;-89
2022/08/08 03:08:10;;;;;;;;;;;;;;;;;;5098008;28;19947;-88
2022/08/08 03:10:49;;;;;;;;;;;;;;;;;;5096690;28;20273;-88
2022/08/08 03:13:33;;;;;;;;;;;;;;;;;;5113637;28;19916;-89
2022/08/08 03:16:17;;;;;;;;;;;;;;;;;;5105805;28;19916;-88
2022/08/08 03:18:46;;;;;;;;;;;;;;;;;;5096303;28;19917;-88
2022/08/08 03:21:11;;;;;;;;;;;;;;;;;;5097931;28;19917;-88
2022/08/08 03:23:36;;;;;;;;;;;;;;;;;;5097864;28;20419;-89
2022/08/08 03:26:02;;;;;;;;;;;;;;;;;;5097679;28;19916;-89
2022/08/08 03:28:31;;;;;;;;;;;;;;;;;;5096390;28;19951;-88
2022/08/08 03:30:57;;;;;;;;;;;;;;;;;;5096268;28;19955;-88
2022/08/08 03:33:22;;;;;;;;;;;;;;;;;;5113608;28;20265;-88
2022/08/08 03:35:49;;;;;;;;;;;;;;;;;;5106854;28;20233;-86
2022/08/08 03:38:15;;;;;;;;;;;;;;;;;;5118412;28;19922;-87
2022/08/08 03:40:40;;;;;;;;;;;;;;;;;;5113156;28;19916;-89
2022/08/08 03:43:06;;;;;;;;;;;;;;;;;;5097209;28;19920;-88
2022/08/08 03:45:31;;;;;;;;;;;;;;;;;;5097397;28;20304;-89
2022/08/08 03:48:06;;;;;;;;;;;;;;;;;;5097445;28;19923;-88
2022/08/08 03:50:31;;;;;;;;;;;;;;;;;;5097369;28;20262;-88
2022/08/08 03:53:15;;;;;;;;;;;;;;;;;;5097581;28;19923;-88
2022/08/08 03:55:41;;;;;;;;;;;;;;;;;;5114916;28;19914;-88
2022/08/08 03:58:07;;;;;;;;;;;;;;;;;;5126432;28;19927;-88
2022/08/08 04:00:33;;;;;;;;;;;;;;;;;;5097981;28;19916;-87
2022/08/08 04:02:59;;;;;;;;;;;;;;;;;;5096923;28;20002;-87
2022/08/08 04:05:29;;;;;;;;;;;;;;;;;;5095676;28;20193;-88
2022/08/08 04:07:55;;;;;;;;;;;;;;;;;;5113229;28;19916;-90
2022/08/08 04:10:20;;;;;;;;;;;;;;;;;;5113030;28;20251;-87
2022/08/08 04:12:45;;;;;;;;;;;;;;;;;;5112670;28;20010;-88
2022/08/08 04:15:11;;;;;;;;;;;;;;;;;;5096464;28;19959;-88
2022/08/08 04:17:36;;;;;;;;;;;;;;;;;;5120457;28;20310;-88
2022/08/08 04:20:01;;;;;;;;;;;;;;;;;;5105334;28;20364;-88
2022/08/08 04:22:27;;;;;;;;;;;;;;;;;;5096840;28;20017;-90
2022/08/08 04:24:52;;;;;;;;;;;;;;;;;;5095266;28;20322;-89
2022/08/08 04:27:18;;;;;;;;;;;;;;;;;;5096747;28;19943;-86
2022/08/08 04:29:43;;;;;;;;;;;;;;;;;;5112702;28;20341;-88
2022/08/08 04:32:13;;;;;;;;;;;;;;;;;;5112669;28;19912;-86
2022/08/08 04:34:38;;;;;;;;;;;;;;;;;;5095996;28;20390;-87
2022/08/08 04:37:03;;;;;;;;;;;;;;;;;;5112212;28;20003;-88
2022/08/08 04:39:29;;;;;;;;;;;;;;;;;;5104755;28;20215;-88
2022/08/08 04:41:54;;;;;;;;;;;;;;;;;;5096059;28;19916;-89
2022/08/08 04:44:19;;;;;;;;;;;;;;;;;;5095672;28;19984;-88
2022/08/08 04:46:45;;;;;;;;;;;;;;;;;;5112158;28;19973;-89
2022/08/08 04:49:10;;;;;;;;;;;;;;;;;;5096629;28;19973;-88
2022/08/08 04:51:35;;;;;;;;;;;;;;;;;;5124934;28;19916;-86
2022/08/08 04:54:01;;;;;;;;;;;;;;;;;;5133347;28;19908;-88
2022/08/08 04:56:26;;;;;;;;;;;;;;;;;;5112692;28;19927;-86
2022/08/08 04:58:51;;;;;;;;;;;;;;;;;;5123301;28;20019;-87
2022/08/08 05:01:16;;;;;;;;;;;;;;;;;;5105395;28;19963;-88
2022/08/08 05:03:42;;;;;;;;;;;;;;;;;;5096352;28;20016;-89
2022/08/08 05:06:07;;;;;;;;;;;;;;;;;;5096145;28;19916;-87
2022/08/08 05:08:32;;;;;;;;;;;;;;;;;;5096004;28;19916;-87
2022/08/08 05:10:58;;;;;;;;;;;;;;;;;;5111926;28;19961;-88
2022/08/08 05:13:23;;;;;;;;;;;;;;;;;;5095924;28;19916;-87
2022/08/08 05:15:48;;;;;;;;;;;;;;;;;;5095836;28;19916;-80
2022/08/08 05:18:14;;;;;;;;;;;;;;;;;;5094279;28;19916;-80
2022/08/08 05:20:39;;;;;;;;;;;;;;;;;;5119503;28;19920;-79
2022/08/08 05:23:04;;;;;;;;;;;;;;;;;;5095765;28;19916;-80
2022/08/08 05:25:30;;;;;;;;;;;;;;;;;;5094560;28;19920;-80
2022/08/08 05:27:55;;;;;;;;;;;;;;;;;;5094144;28;19946;-80
2022/08/08 05:30:20;;;;;;;;;;;;;;;;;;5094972;28;19922;-80
2022/08/08 05:32:46;;;;;;;;;;;;;;;;;;5095206;28;19916;-80
2022/08/08 05:35:12;;;;;;;;;;;;;;;;;;5094884;28;19916;-82
2022/08/08 05:37:38;;;;;;;;;;;;;;;;;;5110911;28;19938;-80
2022/08/08 05:40:04;;;;;;;;;;;;;;;;;;5095165;28;19923;-82
2022/08/08 05:42:42;;;;;;;;;;;;;;;;;;5096964;28;20242;-81
2022/08/08 05:45:08;;;;;;;;;;;;;;;;;;5093899;28;19967;-82
2022/08/08 05:47:33;;;;;;;;;;;;;;;;;;5094731;28;19958;-81
2022/08/08 05:50:01;;;;;;;;;;;;;;;;;;5110178;28;20235;-81
2022/08/08 05:52:27;;;;;;;;;;;;;;;;;;5095183;28;20624;-81
2022/08/08 05:54:52;;;;;;;;;;;;;;;;;;5094847;28;19916;-81
2022/08/08 05:57:18;;;;;;;;;;;;;;;;;;5094878;28;20254;-82
2022/08/08 05:59:45;;;;;;;;;;;;;;;;;;5110484;28;20353;-82
2022/08/08 06:05:08;;;;;;;;;;;;;;;;;;5094735;28;19973;-81
2022/08/08 06:07:33;;;;;;;;;;;;;;;;;;5093300;28;19916;-81
2022/08/08 06:09:59;;;;;;;;;;;;;;;;;;5110453;28;19958;-83
2022/08/08 06:12:25;;;;;;;;;;;;;;;;;;5110357;28;20295;-82
2022/08/08 06:14:50;;;;;;;;;;;;;;;;;;5110261;28;19963;-81
2022/08/08 06:17:15;;;;;;;;;;;;;;;;;;5110372;28;19923;-80
2022/08/08 06:19:41;;;;;;;;;;;;;;;;;;5110552;28;19920;-83
2022/08/08 06:22:06;;;;;;;;;;;;;;;;;;5111345;28;20002;-80
2022/08/08 06:24:31;;;;;;;;;;;;;;;;;;5099778;28;20613;-81
2022/08/08 06:27:02;;;;;;;;;;;;;;;;;;5094466;28;19916;-80
2022/08/08 06:29:29;;;;;;;;;;;;;;;;;;5110418;28;19916;-82
2022/08/08 06:31:56;;;;;;;;;;;;;;;;;;5094695;28;19947;-82
2022/08/08 06:34:21;;;;;;;;;;;;;;;;;;5111026;28;20211;-83
2022/08/08 06:36:47;;;;;;;;;;;;;;;;;;5095489;28;19973;-82
2022/08/08 06:39:13;;;;;;;;;;;;;;;;;;5114514;28;19969;-80
2022/08/08 06:41:57;;;;;;;;;;;;;;;;;;5098529;28;19982;-81
2022/08/08 06:44:23;;;;;;;;;;;;;;;;;;5108031;28;20315;-82
2022/08/08 06:46:48;;;;;;;;;;;;;;;;;;5114515;28;19920;-82
2022/08/08 06:49:13;;;;;;;;;;;;;;;;;;5114398;28;19945;-82
2022/08/08 06:51:39;;;;;;;;;;;;;;;;;;5098409;28;19916;-81
2022/08/08 06:54:04;;;;;;;;;;;;;;;;;;5114517;28;19923;-82
2022/08/08 06:56:29;;;;;;;;;;;;;;;;;;5114223;28;19954;-81
2022/08/08 06:58:55;;;;;;;;;;;;;;;;;;5098246;28;19982;-83
2022/08/08 07:01:20;;;;;;;;;;;;;;;;;;5098145;28;19952;-82
2022/08/08 07:03:55;;;;;;;;;;;;;;;;;;5104226;28;19916;-82
2022/08/08 07:06:22;;;;;;;;;;;;;;;;;;5103056;28;19916;-81
2022/08/08 07:08:48;;;;;;;;;;;;;;;;;;5098575;28;19942;-82
2022/08/08 07:11:17;;;;;;;;;;;;;;;;;;5113724;28;19916;-82
2022/08/08 07:13:44;;;;;;;;;;;;;;;;;;5097827;28;20381;-82
2022/08/08 07:16:12;;;;;;;;;;;;;;;;;;5113831;28;19916;-81
2022/08/08 07:18:56;;;;;;;;;;;;;;;;;;5096221;28;19970;-80
2022/08/08 07:21:22;;;;;;;;;;;;;;;;;;5098460;28;20316;-82
2022/08/08 07:23:47;;;;;;;;;;;;;;;;;;5098060;28;19923;-81
2022/08/08 07:26:12;;;;;;;;;;;;;;;;;;5105893;28;19916;-81
2022/08/08 07:28:38;;;;;;;;;;;;;;;;;;5097996;28;19916;-82
2022/08/08 07:31:03;;;;;;;;;;;;;;;;;;5113471;28;19956;-82
2022/08/08 07:33:29;;;;;;;;;;;;;;;;;;5097366;28;19951;-83
2022/08/08 07:35:54;;;;;;;;;;;;;;;;;;5097717;28;19920;-83
2022/08/08 07:38:19;;;;;;;;;;;;;;;;;;5113161;28;20025;-82
2022/08/08 07:40:45;;;;;;;;;;;;;;;;;;5097865;28;20308;-82
2022/08/08 07:43:10;;;;;;;;;;;;;;;;;;5097582;28;19916;-85
2022/08/08 07:45:36;;;;;;;;;;;;;;;;;;5097451;28;19920;-82
2022/08/08 07:48:01;;;;;;;;;;;;;;;;;;5117363;28;19958;-83
2022/08/08 07:50:27;;;;;;;;;;;;;;;;;;5097816;28;19969;-83
2022/08/08 07:52:55;;;;;;;;;;;;;;;;;;5097589;28;19955;-83
2022/08/08 07:55:25;;;;;;;;;;;;;;;;;;5112577;28;19923;-84
2022/08/08 07:57:53;;;;;;;;;;;;;;;;;;5097376;28;19916;-82
2022/08/08 08:00:18;;;;;;;;;;;;;;;;;;5097674;28;19917;-82
2022/08/08 08:02:52;;;;;;;;;;;;;;;;;;5112832;28;19916;-82
2022/08/08 08:05:19;;;;;;;;;;;;;;;;;;5097045;28;19916;-83
2022/08/08 08:07:46;;;;;;;;;;;;;;;;;;5103593;28;19918;-82
2022/08/08 08:10:11;;;;;;;;;;;;;;;;;;5102639;28;19916;-82
2022/08/08 08:12:37;;;;;;;;;;;;;;;;;;5097474;28;20110;-82
2022/08/08 08:15:03;;;;;;;;;;;;;;;;;;5097178;28;20241;-83
2022/08/08 08:17:29;;;;;;;;;;;;;;;;;;5097529;28;19916;-82
2022/08/08 08:19:57;;;;;;;;;;;;;;;;;;5097304;28;19919;-81
2022/08/08 08:22:23;;;;;;;;;;;;;;;;;;5096777;28;19916;-82
2022/08/08 08:24:48;;;;;;;;;;;;;;;;;;5096406;28;20326;-83
2022/08/08 08:27:13;;;;;;;;;;;;;;;;;;5113776;28;19915;-83
2022/08/08 08:29:39;;;;;;;;;;;;;;;;;;5105128;28;20333;-84
2022/08/08 08:32:04;;;;;;;;;;;;;;;;;;5096752;28;20423;-83
2022/08/08 08:34:30;;;;;;;;;;;;;;;;;;5096182;28;19916;-83
2022/08/08 08:36:55;;;;;;;;;;;;;;;;;;5096216;28;19935;-84
2022/08/08 08:39:20;;;;;;;;;;;;;;;;;;5095229;28;19912;-83
2022/08/08 08:41:46;;;;;;;;;;;;;;;;;;5096283;28;19916;-82
2022/08/08 08:44:11;;;;;;;;;;;;;;;;;;5096024;28;20251;-82
2022/08/08 08:46:36;;;;;;;;;;;;;;;;;;5111709;28;19946;-82
2022/08/08 08:49:02;;;;;;;;;;;;;;;;;;5105589;28;20049;-81
2022/08/08 08:51:27;;;;;;;;;;;;;;;;;;5099338;28;19971;-82
2022/08/08 08:53:53;;;;;;;;;;;;;;;;;;5112314;28;19947;-83
2022/08/08 08:56:18;;;;;;;;;;;;;;;;;;5095807;28;19923;-83
2022/08/08 08:58:45;;;;;;;;;;;;;;;;;;5111960;28;19923;-83
2022/08/08 09:01:14;;;;;;;;;;;;;;;;;;5110875;28;19923;-82
2022/08/08 09:03:41;;;;;;;;;;;;;;;;;;5111060;28;19985;-82
2022/08/08 09:06:08;;;;;;;;;;;;;;;;;;5094380;28;20294;-83
2022/08/08 09:08:33;;;;;;;;;;;;;;;;;;5099723;28;19900;-82
2022/08/08 09:10:58;;;;;;;;;;;;;;;;;;5115318;28;19942;-82
2022/08/08 09:13:24;;;;;;;;;;;;;;;;;;5111155;28;20318;-84
2022/08/08 09:15:49;;;;;;;;;;;;;;;;;;5111084;28;19916;-83
2022/08/08 09:18:16;;;;;;;;;;;;;;;;;;5111121;28;19999;-82
2022/08/08 09:20:43;;;;;;;;;;;;;;;;;;5095366;28;19948;-82
2022/08/08 09:23:08;;;;;;;;;;;;;;;;;;5095351;28;20330;-79
2022/08/08 09:25:33;;;;;;;;;;;;;;;;;;5110844;28;19927;-81
2022/08/08 09:27:59;;;;;;;;;;;;;;;;;;5095379;28;19924;-80
2022/08/08 09:30:24;;;;;;;;;;;;;;;;;;5111927;28;19916;-79
2022/08/08 09:32:51;;;;;;;;;;;;;;;;;;5095727;28;19916;-80
2022/08/08 09:35:19;;;;;;;;;;;;;;;;;;5095109;28;20364;-82
2022/08/08 09:37:48;;;;;;;;;;;;;;;;;;5095823;28;20038;-82
2022/08/08 09:40:16;;;;;;;;;;;;;;;;;;5110922;28;19923;-82
2022/08/08 09:42:43;;;;;;;;;;;;;;;;;;5093830;28;19923;-83
2022/08/08 09:45:09;;;;;;;;;;;;;;;;;;5110757;28;20310;-82
2022/08/08 09:47:35;;;;;;;;;;;;;;;;;;5094865;28;20034;-82
2022/08/08 09:50:05;;;;;;;;;;;;;;;;;;5114309;28;19916;-82
2022/08/08 09:52:31;;;;;;;;;;;;;;;;;;5093772;28;20003;-83
2022/08/08 09:54:56;;;;;;;;;;;;;;;;;;5095149;28;19923;-83
2022/08/08 09:57:34;;;;;;;;;;;;;;;;;;5110896;28;19916;-82
2022/08/08 09:59:59;;;;;;;;;;;;;;;;;;5094936;28;19989;-82
2022/08/08 10:02:32;;;;;;;;;;;;;;;;;;5095214;28;20317;-83
2022/08/08 10:05:06;;;;;;;;;;;;;;;;;;5110276;28;19923;-83
2022/08/08 10:07:32;;;;;;;;;;;;;;;;;;5094568;28;19916;-83
2022/08/08 10:09:57;;;;;;;;;;;;;;;;;;5116875;28;19959;-82
2022/08/08 10:12:38;;;;;;;;;;;;;;;;;;5096939;28;19923;-83
2022/08/08 10:15:05;;;;;;;;;;;;;;;;;;5098949;28;20265;-84
2022/08/08 10:17:31;;;;;;;;;;;;;;;;;;5098981;28;19924;-83
2022/08/08 10:19:57;;;;;;;;;;;;;;;;;;5098987;28;19943;-81
2022/08/08 10:22:23;;;;;;;;;;;;;;;;;;5098977;28;20265;-82
2022/08/08 10:24:48;;;;;;;;;;;;;;;;;;5098913;28;19916;-82
2022/08/08 10:27:13;;;;;;;;;;;;;;;;;;5114430;28;19923;-82
2022/08/08 10:29:39;;;;;;;;;;;;;;;;;;5117806;28;19924;-82
2022/08/08 10:34:50;;;;;;;;;;;;;;;;;;5111807;28;19986;-82
2022/08/08 10:37:20;;;;;;;;;;;;;;;;;;5098424;28;20337;-83
2022/08/08 10:39:45;;;;;;;;;;;;;;;;;;5114472;28;19919;-82
2022/08/08 10:42:11;;;;;;;;;;;;;;;;;;5114128;28;20211;-81
2022/08/08 10:44:37;;;;;;;;;;;;;;;;;;5098153;28;19924;-81
2022/08/08 10:47:12;;;;;;;;;;;;;;;;;;5113334;28;19927;-82
2022/08/08 10:49:40;;;;;;;;;;;;;;;;;;5098626;28;19922;-83
2022/08/08 10:52:06;;;;;;;;;;;;;;;;;;5121337;28;19989;-82
2022/08/08 10:54:31;;;;;;;;;;;;;;;;;;5097874;28;20310;-82
2022/08/08 10:56:57;;;;;;;;;;;;;;;;;;5098323;28;19920;-81
2022/08/08 10:59:22;;;;;;;;;;;;;;;;;;5113704;28;19938;-84
2022/08/08 11:01:47;;;;;;;;;;;;;;;;;;5113933;28;19939;-81
2022/08/08 11:04:13;;;;;;;;;;;;;;;;;;5114198;28;20019;-81
2022/08/08 11:06:38;;;;;;;;;;;;;;;;;;5114354;28;19916;-82
2022/08/08 11:09:05;;;;;;;;;;;;;;;;;;5098259;28;19974;-82
2022/08/08 11:11:43;;;;;;;;;;;;;;;;;;5115891;28;19920;-83
2022/08/08 11:14:09;;;;;;;;;;;;;;;;;;5101442;28;19916;-82
2022/08/08 11:16:34;;;;;;;;;;;;;;;;;;5098332;28;19923;-82
2022/08/08 11:19:00;;;;;;;;;;;;;;;;;;5097952;28;19959;-82
2022/08/08 11:21:27;;;;;;;;;;;;;;;;;;5097517;28;19923;-85
2022/08/08 11:23:53;;;;;;;;;;;;;;;;;;5096932;28;19916;-82
2022/08/08 11:26:18;;;;;;;;;;;;;;;;;;5113227;28;20387;-81
2022/08/08 11:28:43;;;;;;;;;;;;;;;;;;5096691;28;19920;-81
2022/08/08 11:31:09;;;;;;;;;;;;;;;;;;5097791;28;19916;-82
2022/08/08 11:33:34;;;;;;;;;;;;;;;;;;5098525;28;19923;-82
2022/08/08 11:36:00;;;;;;;;;;;;;;;;;;5098554;28;19916;-82
2022/08/08 11:38:25;;;;;;;;;;;;;;;;;;5113092;28;20015;-82
2022/08/08 11:40:51;;;;;;;;;;;;;;;;;;5112851;28;19916;-81
2022/08/08 11:43:16;;;;;;;;;;;;;;;;;;5097417;28;19916;-83
2022/08/08 11:45:42;;;;;;;;;;;;;;;;;;5096978;28;19927;-82
2022/08/08 11:48:08;;;;;;;;;;;;;;;;;;5097306;28;19951;-82
2022/08/08 11:50:33;;;;;;;;;;;;;;;;;;5113068;28;19920;-82
2022/08/08 11:52:58;;;;;;;;;;;;;;;;;;5099540;28;19948;-82
2022/08/08 11:55:26;;;;;;;;;;;;;;;;;;5117487;28;20022;-82
2022/08/08 11:58:04;;;;;;;;;;;;;;;;;;5098281;28;20245;-82
2022/08/08 12:00:30;;;;;;;;;;;;;;;;;;5097053;28;19916;-83
2022/08/08 12:02:56;;;;;;;;;;;;;;;;;;5112522;28;19916;-81
2022/08/08 12:05:37;;;;;;;;;;;;;;;;;;5097160;28;19916;-84
2022/08/08 12:08:02;;;;;;;;;;;;;;;;;;5097131;28;19916;-81
2022/08/08 12:10:29;;;;;;;;;;;;;;;;;;5112407;28;19966;-82
2022/08/08 12:13:20;;;;;;;;;;;;;;;;;;5112707;28;19916;-82
2022/08/08 12:15:48;;;;;;;;;;;;;;;;;;5094848;28;20265;-81
2022/08/08 12:18:14;;;;;;;;;;;;;;;;;;5112028;28;19966;-81
2022/08/08 12:20:39;;;;;;;;;;;;;;;;;;5096546;28;19920;-88
2022/08/08 12:23:04;;;;;;;;;;;;;;;;;;5112206;28;19916;-86
2022/08/08 12:25:30;;;;;;;;;;;;;;;;;;5096616;28;20341;-88
2022/08/08 12:28:06;;;;;;;;;;;;;;;;;;5112034;28;19984;-90
2022/08/08 12:30:31;;;;;;;;;;;;;;;;;;5112275;28;19916;-87
2022/08/08 12:32:58;;;;;;;;;;;;;;;;;;5112630;28;19916;-88
2022/08/08 12:35:24;;;;;;;;;;;;;;;;;;5101969;28;19916;-85
2022/08/08 12:38:10;;;;;;;;;;;;;;;;;;5101192;28;20253;-89
2022/08/08 12:40:45;;;;;;;;;;;;;;;;;;5094933;28;19912;-88
2022/08/08 12:43:10;;;;;;;;;;;;;;;;;;5096293;28;19916;-87
2022/08/08 12:45:40;;;;;;;;;;;;;;;;;;5097059;28;19927;-88
2022/08/08 12:48:35;;;;;;;;;;;;;;;;;;5112831;28;19916;-88
2022/08/08 12:51:00;;;;;;;;;;;;;;;;;;5083471;28;19912;-88
2022/08/08 12:53:26;;;;;;;;;;;;;;;;;;5095913;28;19916;-89
2022/08/08 12:55:51;;;;;;;;;;;;;;;;;;5115357;28;19916;-87
2022/08/08 12:58:17;;;;;;;;;;;;;;;;;;5108812;28;19988;-89
2022/08/08 13:00:42;;;;;;;;;;;;;;;;;;5096116;28;19912;-90
2022/08/08 13:03:07;;;;;;;;;;;;;;;;;;5096564;28;20271;-86
2022/08/08 13:05:33;;;;;;;;;;;;;;;;;;5095804;28;20350;-88
2022/08/08 13:07:58;;;;;;;;;;;;;;;;;;5095721;28;20361;-87
2022/08/08 13:10:29;;;;;;;;;;;;;;;;;;5095405;28;19952;-89
2022/08/08 13:12:59;;;;;;;;;;;;;;;;;;5095661;28;19912;-89
2022/08/08 13:15:27;;;;;;;;;;;;;;;;;;5096204;28;20014;-90
2022/08/08 13:17:53;;;;;;;;;;;;;;;;;;5118956;28;19912;-89
2022/08/08 13:20:18;;;;;;;;;;;;;;;;;;5098891;28;19923;-87
2022/08/08 13:22:44;;;;;;;;;;;;;;;;;;5093961;28;19916;-89
2022/08/08 13:25:15;;;;;;;;;;;;;;;;;;5093813;28;19916;-88
2022/08/08 13:27:40;;;;;;;;;;;;;;;;;;5095631;28;19916;-88
2022/08/08 13:30:06;;;;;;;;;;;;;;;;;;5095382;28;20289;-89
2022/08/08 13:32:35;;;;;;;;;;;;;;;;;;5111285;28;20329;-90
2022/08/08 13:35:00;;;;;;;;;;;;;;;;;;5111254;28;20309;-88
2022/08/08 13:37:26;;;;;;;;;;;;;;;;;;5094905;28;19958;-88
2022/08/08 13:39:51;;;;;;;;;;;;;;;;;;5106867;28;19966;-89
2022/08/08 13:42:17;;;;;;;;;;;;;;;;;;5111269;28;19958;-89
2022/08/08 13:44:42;;;;;;;;;;;;;;;;;;5110806;28;19920;-88
2022/08/08 13:47:08;;;;;;;;;;;;;;;;;;5094370;28;20015;-87
2022/08/08 13:49:33;;;;;;;;;;;;;;;;;;5110901;28;19968;-87
2022/08/08 13:52:05;;;;;;;;;;;;;;;;;;5095271;28;20324;-90
2022/08/08 13:54:34;;;;;;;;;;;;;;;;;;5095242;28;19958;-89
2022/08/08 13:57:02;;;;;;;;;;;;;;;;;;5110614;28;19923;-88
2022/08/08 13:59:31;;;;;;;;;;;;;;;;;;5119842;28;19943;-87
2022/08/08 14:01:57;;;;;;;;;;;;;;;;;;5102653;28;19970;-88
2022/08/08 14:04:23;;;;;;;;;;;;;;;;;;5110951;28;19916;-89
2022/08/08 14:06:48;;;;;;;;;;;;;;;;;;5094566;28;20315;-88
2022/08/08 14:09:14;;;;;;;;;;;;;;;;;;5095022;28;19917;-89
2022/08/08 14:11:39;;;;;;;;;;;;;;;;;;5094811;28;19965;-88
2022/08/08 14:14:04;;;;;;;;;;;;;;;;;;5095009;28;19923;-87
2022/08/08 14:16:30;;;;;;;;;;;;;;;;;;5110660;28;19916;-87
2022/08/08 14:18:56;;;;;;;;;;;;;;;;;;5110722;28;19988;-88
2022/08/08 14:21:39;;;;;;;;;;;;;;;;;;5105665;28;19959;-87
2022/08/08 14:24:05;;;;;;;;;;;;;;;;;;5093513;28;19962;-89
2022/08/08 14:26:30;;;;;;;;;;;;;;;;;;5110938;28;19949;-87
2022/08/08 14:28:56;;;;;;;;;;;;;;;;;;5110941;28;20397;-88
2022/08/08 14:31:22;;;;;;;;;;;;;;;;;;5095234;28;19916;-89
2022/08/08 14:33:54;;;;;;;;;;;;;;;;;;5094518;28;19965;-86
2022/08/08 14:36:30;;;;;;;;;;;;;;;;;;5110742;28;19920;-91
2022/08/08 14:38:56;;;;;;;;;;;;;;;;;;5093400;28;19916;-86
2022/08/08 14:41:21;;;;;;;;;;;;;;;;;;5119168;28;19919;-88
2022/08/08 14:43:47;;;;;;;;;;;;;;;;;;5098644;28;19920;-87
2022/08/08 14:46:15;;;;;;;;;;;;;;;;;;5094663;28;19923;-87
2022/08/08 14:48:41;;;;;;;;;;;;;;;;;;5093104;28;20002;-88
2022/08/08 14:51:07;;;;;;;;;;;;;;;;;;5095413;28;19951;-88
2022/08/08 14:53:36;;;;;;;;;;;;;;;;;;5110868;28;19974;-91
2022/08/08 14:56:01;;;;;;;;;;;;;;;;;;5094637;28;19916;-88
2022/08/08 14:58:26;;;;;;;;;;;;;;;;;;5096736;28;19923;-89
2022/08/08 15:00:52;;;;;;;;;;;;;;;;;;5098601;28;19959;-89
2022/08/08 15:03:18;;;;;;;;;;;;;;;;;;5127011;28;19955;-88
2022/08/08 15:05:44;;;;;;;;;;;;;;;;;;5099587;28;20322;-87
2022/08/08 15:08:10;;;;;;;;;;;;;;;;;;5113970;28;19937;-88
2022/08/08 15:10:35;;;;;;;;;;;;;;;;;;5098256;28;20002;-88
2022/08/08 15:13:00;;;;;;;;;;;;;;;;;;5113781;28;19945;-88
2022/08/08 15:15:26;;;;;;;;;;;;;;;;;;5098185;28;19923;-88
2022/08/08 15:17:52;;;;;;;;;;;;;;;;;;5096555;28;20333;-89
2022/08/08 15:20:17;;;;;;;;;;;;;;;;;;5097831;28;19916;-88
2022/08/08 15:22:43;;;;;;;;;;;;;;;;;;5098415;28;20242;-88
2022/08/08 15:25:08;;;;;;;;;;;;;;;;;;5106029;28;20011;-89
2022/08/08 15:27:34;;;;;;;;;;;;;;;;;;5098918;28;19920;-87
2022/08/08 15:29:59;;;;;;;;;;;;;;;;;;5097888;28;19954;-87
2022/08/08 15:32:26;;;;;;;;;;;;;;;;;;5097624;28;19916;-86
2022/08/08 15:34:57;;;;;;;;;;;;;;;;;;5098209;28;19965;-90
2022/08/08 15:37:22;;;;;;;;;;;;;;;;;;5097458;28;19952;-89
2022/08/08 15:39:48;;;;;;;;;;;;;;;;;;5113178;28;20314;-89
2022/08/08 15:42:13;;;;;;;;;;;;;;;;;;5097602;28;20012;-90
2022/08/08 15:44:39;;;;;;;;;;;;;;;;;;5107289;28;20021;-89
2022/08/08 15:47:06;;;;;;;;;;;;;;;;;;5099850;28;19916;-88
2022/08/08 15:49:31;;;;;;;;;;;;;;;;;;5096084;28;19912;-88
2022/08/08 15:51:56;;;;;;;;;;;;;;;;;;5097641;28;19979;-90
2022/08/08 15:54:22;;;;;;;;;;;;;;;;;;5112990;28;19966;-88
2022/08/08 15:56:47;;;;;;;;;;;;;;;;;;5097784;28;19916;-89
2022/08/08 15:59:12;;;;;;;;;;;;;;;;;;5097682;28;19912;-89
2022/08/08 16:04:22;;;;;;;;;;;;;;;;;;5110404;28;19923;-90
2022/08/08 16:06:47;;;;;;;;;;;;;;;;;;5110679;28;19912;-86
2022/08/08 16:09:13;;;;;;;;;;;;;;;;;;5098752;28;19916;-88
2022/08/08 16:11:38;;;;;;;;;;;;;;;;;;5095583;28;19912;-89
2022/08/08 16:14:04;;;;;;;;;;;;;;;;;;5097393;28;20001;-90
2022/08/08 16:16:29;;;;;;;;;;;;;;;;;;5097229;28;19923;-89
2022/08/08 16:18:54;;;;;;;;;;;;;;;;;;5096835;28;19946;-88
2022/08/08 16:21:19;;;;;;;;;;;;;;;;;;5095458;28;19942;-87
2022/08/08 16:23:45;;;;;;;;;;;;;;;;;;5095654;28;19923;-89
2022/08/08 16:26:11;;;;;;;;;;;;;;;;;;5102287;28;19916;-88
2022/08/08 16:28:37;;;;;;;;;;;;;;;;;;5104828;28;19945;-87
2022/08/08 16:31:03;;;;;;;;;;;;;;;;;;5112319;28;20350;-89
2022/08/08 16:33:28;;;;;;;;;;;;;;;;;;5096615;28;19922;-87
2022/08/08 16:35:53;;;;;;;;;;;;;;;;;;5096562;28;19916;-89
2022/08/08 16:38:19;;;;;;;;;;;;;;;;;;5096316;28;20006;-89
2022/08/08 16:40:44;;;;;;;;;;;;;;;;;;5096300;28;20102;-89
2022/08/08 16:43:09;;;;;;;;;;;;;;;;;;5096252;28;19948;-89
2022/08/08 16:45:35;;;;;;;;;;;;;;;;;;5111778;28;19920;-91
2022/08/08 16:48:00;;;;;;;;;;;;;;;;;;5107595;28;19908;-87
2022/08/08 16:50:26;;;;;;;;;;;;;;;;;;5101012;28;19916;-90
2022/08/08 16:52:52;;;;;;;;;;;;;;;;;;5096389;28;19912;-89
2022/08/08 16:55:17;;;;;;;;;;;;;;;;;;5096312;28;19920;-86
2022/08/08 16:57:44;;;;;;;;;;;;;;;;;;5111911;28;20009;-88
2022/08/08 17:00:09;;;;;;;;;;;;;;;;;;5096316;28;19920;-88
2022/08/08 17:02:35;;;;;;;;;;;;;;;;;;5095724;28;19945;-91
2022/08/08 17:05:00;;;;;;;;;;;;;;;;;;5096029;28;19923;-89
2022/08/08 17:07:26;;;;;;;;;;;;;;;;;;5114636;28;19916;-86